Impacts TAF Board
For situational awareness. Not to be used for flight planning purposes.
IDs:

KDEN - Denver Intl, CO, US

Issued at 1521 UTC 16 Feb 2019
Updated at 1604 UTC 16 Feb 2019
Potential Impact None Slight Moderate High
Time<<17/17Z 17/18Z 17/19Z 17/20Z 17/21Z 17/22Z 17/23Z 18/00Z 18/01Z 18/02Z 18/03Z 18/04Z 18/05Z
Type PRVL
VIS >6
CIG --
Cover SCT
FltCat VFR
WX --
WDir 60
WSpd 7
WGst --
Raw TAF
KDEN 161521Z 1615/1718 28011KT P6SM SCT070 BKN200
  FM161800 34020G32KT P6SM SCT050 OVC100
  TEMPO 1621/1624 -SN SCT030 BKN050
  FM170200 28011KT P6SM FEW050 BKN100
  FM170700 22007KT P6SM FEW070 SCT120
  FM171500 06007KT P6SM SCT220


METAR Board
Radar Display
Forecast Discussion
For situational awareness. Not to be used for flight planning purposes.